首页
METAR-TAF:

METAR-TAF

机场 :

怡保国际机场

怡保, 马来西亚

纬度: 04-34-09N, 经度: 101-05-35E, 海拔: 40米

当前天气观测

该预报发布于31分钟前的13:00 UTC
风速2节,风向多变
温度 25°C
湿度 94%
气压 1011 hPa
能見度: 7000
少量云层高于300英尺
散云层高于2600英尺
小雨,

METAR: WMKI 171300Z VRB02KT 7000 -RA FEW003 SCT026 25/24 Q1011

时间: 21:31 (13:31 UTC)

预报

该预报发布于2小时和31分钟前的11:00 UTC
预报有效从17日的 12点(UTC)到 18日的 12点(UTC)
风速3节,风向多变
能見度: 8000
少量云层高于2600英尺
短暂存在
从 17日的 12点(UTC)到 17日的 14点(UTC)
能見度: 6000
少量云层高于1000英尺
小雨,

TAF: WMKI 171100Z 1712/1812 VRB03KT 8000 FEW026 TEMPO 1712/1714 6000 -RA FEW010

超过4000个机场的气象观测和天气预报(METAR&TAF报告)。

可查询的气象台以黄色和红色小点在地图上表示。

将鼠标移到小点上方,可查看气象台名称。

然后点击查看天气观测和预报。

如需切换地图:点击带黑十字的绿色按钮放大地图;点击带横线的绿色按钮缩小地图;或者点击绿色箭头查看邻近地区的地图。


METAR-TAF: